Time;durP1;ratioP1;P1;durP2;ratioP2;P2;SDS_P1;SDS_P2;PMS_P1;PMS_P2;Temp;Humidity;BMP_temperature;BMP_pressure;BME280_temperature;BME280_humidity;BME280_pressure;Samples;Min_cycle;Max_cycle;Signal;HPM_P1;HPM_P2
2022/05/25 00:00:27;;;;;;;7.53;5.03;;;;;;;;;;5114121;28;20361;-67
2022/05/25 00:02:54;;;;;;;7.27;5.60;;;11.40;99.90;;;;;;5114601;28;20367;-67
2022/05/25 00:05:20;;;;;;;8.57;5.50;;;11.40;99.90;;;;;;5114357;28;20761;-67
2022/05/25 00:07:46;;;;;;;6.97;5.30;;;11.40;99.90;;;;;;5114430;28;20354;-67
2022/05/25 00:10:12;;;;;;;8.60;5.67;;;11.40;99.90;;;;;;5114545;28;20282;-67
2022/05/25 00:12:40;;;;;;;10.33;5.80;;;11.40;99.90;;;;;;5095839;28;20614;-67
2022/05/25 00:15:08;;;;;;;9.60;6.13;;;11.30;99.90;;;;;;5114085;28;20043;-67
2022/05/25 00:17:35;;;;;;;7.97;5.67;;;11.40;99.90;;;;;;5095919;28;20294;-67
2022/05/25 00:20:02;;;;;;;8.47;6.03;;;11.30;99.90;;;;;;5096118;28;20784;-67
2022/05/25 00:22:29;;;;;;;8.30;5.70;;;11.30;99.90;;;;;;5113824;28;20285;-68
2022/05/25 00:24:57;;;;;;;9.97;5.70;;;11.30;99.90;;;;;;5114091;28;20438;-67
2022/05/25 00:27:23;;;;;;;10.07;6.07;;;11.30;99.90;;;;;;5113911;28;20372;-67
2022/05/25 00:29:49;;;;;;;9.60;5.50;;;11.30;99.90;;;;;;5114176;28;20273;-67
2022/05/25 00:32:14;;;;;;;7.97;5.80;;;11.30;99.90;;;;;;5114080;28;20284;-67
2022/05/25 00:34:40;;;;;;;10.07;6.70;;;11.30;99.90;;;;;;5113627;28;20043;-67
2022/05/25 00:37:06;;;;;;;10.40;6.30;;;11.30;99.90;;;;;;5114194;28;20039;-67
2022/05/25 00:39:31;;;;;;;8.17;6.17;;;11.30;99.90;;;;;;5113488;28;20043;-67
2022/05/25 00:41:57;;;;;;;8.67;6.53;;;11.30;99.90;;;;;;5095752;28;20043;-67
2022/05/25 00:44:23;;;;;;;8.80;6.10;;;11.30;99.90;;;;;;5113874;28;20046;-67
2022/05/25 00:46:49;;;;;;;9.60;6.57;;;11.30;99.90;;;;;;5113492;28;20127;-67
2022/05/25 00:49:15;;;;;;;8.80;6.37;;;11.30;99.90;;;;;;5113843;28;20047;-67
2022/05/25 00:51:53;;;;;;;9.33;6.53;;;11.20;99.90;;;;;;5113399;28;20289;-67
2022/05/25 00:54:37;;;;;;;9.30;7.63;;;11.30;99.90;;;;;;5113631;28;20051;-67
2022/05/25 00:57:08;;;;;;;10.90;7.07;;;11.20;99.90;;;;;;5113698;28;20309;-67
2022/05/25 00:59:43;;;;;;;9.17;7.33;;;11.20;99.90;;;;;;5113368;28;20288;-67
2022/05/25 01:02:08;;;;;;;8.88;7.13;;;11.20;99.90;;;;;;5113531;28;20269;-67
2022/05/25 01:04:34;;;;;;;9.70;7.57;;;11.10;99.90;;;;;;5113175;28;20054;-67
2022/05/25 01:07:21;;;;;;;10.63;7.77;;;11.10;99.90;;;;;;5113203;28;20083;-67
2022/05/25 01:09:50;;;;;;;8.57;7.20;;;11.10;99.90;;;;;;5113299;28;20047;-67
2022/05/25 01:12:24;;;;;;;9.10;7.87;;;11.10;99.90;;;;;;5113324;28;20281;-67
2022/05/25 01:15:20;;;;;;;11.85;7.80;;;11.10;99.90;;;;;;5112968;28;20289;-67
2022/05/25 01:18:13;;;;;;;8.88;6.68;;;11.10;99.90;;;;;;5094571;28;20400;-67
2022/05/25 01:21:12;;;;;;;9.63;7.50;;;11.10;99.90;;;;;;5113219;28;20055;-67
2022/05/25 01:23:50;;;;;;;11.40;7.90;;;11.10;99.90;;;;;;5084976;28;20293;-67
2022/05/25 01:26:31;;;;;;;12.70;8.13;;;11.00;99.90;;;;;;5095541;28;20348;-67
2022/05/25 01:29:06;;;;;;;9.67;8.03;;;11.00;99.90;;;;;;5095333;28;20376;-67
2022/05/25 01:32:02;;;;;;;14.15;7.53;;;11.00;99.90;;;;;;5112920;28;20292;-68
2022/05/25 01:34:53;;;;;;;12.87;8.27;;;11.10;99.90;;;;;;5113387;28;20131;-67
2022/05/25 01:37:27;;;;;;;8.93;7.33;;;11.00;99.90;;;;;;5113285;28;20286;-67
2022/05/25 01:40:09;;;;;;;12.55;8.18;;;11.00;99.90;;;;;;5112821;28;20277;-67
2022/05/25 01:42:47;;;;;;;12.07;8.37;;;11.00;99.90;;;;;;5112683;28;20044;-67
2022/05/25 01:45:15;;;;;;;12.17;8.20;;;11.00;99.90;;;;;;5112975;28;20272;-67
2022/05/25 01:47:45;;;;;;;10.87;7.83;;;11.00;99.90;;;;;;5094975;28;20277;-67
2022/05/25 01:50:16;;;;;;;11.10;9.13;;;11.00;99.90;;;;;;5095008;28;20265;-67
2022/05/25 01:52:46;;;;;;;10.03;8.47;;;11.00;99.90;;;;;;5112648;28;20756;-67
2022/05/25 01:55:23;;;;;;;11.77;8.30;;;11.00;99.90;;;;;;5113064;28;20342;-67
2022/05/25 01:57:56;;;;;;;12.93;8.13;;;11.00;99.90;;;;;;5112872;28;20305;-67
2022/05/25 02:00:32;;;;;;;10.73;8.20;;;11.00;99.90;;;;;;5112817;28;20821;-67
2022/05/25 02:05:58;;;;;;;13.67;8.27;;;11.00;99.90;;;;;;5112632;28;20362;-67
2022/05/25 02:08:52;;;;;;;12.17;8.90;;;10.90;99.90;;;;;;5112926;28;20309;-67
2022/05/25 02:11:44;;;;;;;14.20;8.60;;;10.90;99.90;;;;;;5112797;28;20830;-67
2022/05/25 02:14:24;;;;;;;12.03;8.43;;;10.90;99.90;;;;;;5115512;28;20269;-67
2022/05/25 02:17:09;;;;;;;11.87;9.30;;;10.90;99.90;;;;;;5116481;28;20327;-67
2022/05/25 02:19:37;;;;;;;14.00;9.40;;;10.90;99.90;;;;;;5116720;28;20277;-67
2022/05/25 02:22:22;;;;;;;13.33;9.47;;;10.90;99.90;;;;;;5116459;28;20304;-67
2022/05/25 02:24:55;;;;;;;11.27;9.40;;;10.90;99.90;;;;;;5098396;28;20289;-67
2022/05/25 02:27:23;;;;;;;11.33;9.20;;;10.80;99.90;;;;;;5116371;28;20329;-67
2022/05/25 02:29:53;;;;;;;13.93;9.17;;;10.80;99.90;;;;;;5116013;28;20312;-67
2022/05/25 02:32:26;;;;;;;12.63;10.20;;;10.80;99.90;;;;;;5116183;28;20368;-67
2022/05/25 02:34:54;;;;;;;13.00;9.87;;;10.80;99.90;;;;;;5116154;28;20625;-67
2022/05/25 02:37:24;;;;;;;13.23;9.83;;;10.80;99.90;;;;;;5081698;28;20282;-67
2022/05/25 02:39:52;;;;;;;12.83;10.30;;;10.70;99.90;;;;;;5116152;28;20330;-67
2022/05/25 02:42:18;;;;;;;11.70;9.23;;;10.80;99.90;;;;;;5116004;28;20629;-67
2022/05/25 02:44:44;;;;;;;12.70;9.40;;;10.80;99.90;;;;;;5115827;28;20278;-68
2022/05/25 02:47:10;;;;;;;14.30;11.03;;;10.80;99.90;;;;;;5115883;28;20484;-68
2022/05/25 02:49:36;;;;;;;14.77;11.80;;;10.80;99.90;;;;;;5116151;28;20280;-68
2022/05/25 02:52:03;;;;;;;13.63;10.87;;;10.80;99.90;;;;;;5115715;28;20334;-67
2022/05/25 02:54:29;;;;;;;12.87;10.23;;;10.80;99.90;;;;;;5115973;28;20287;-67
2022/05/25 02:56:55;;;;;;;16.57;11.23;;;10.80;99.90;;;;;;5115539;28;20269;-67
2022/05/25 02:59:21;;;;;;;15.00;10.73;;;10.70;99.90;;;;;;5115685;28;20134;-67
2022/05/25 03:01:47;;;;;;;16.40;11.63;;;10.70;99.90;;;;;;5115328;28;20048;-67
2022/05/25 03:04:13;;;;;;;15.47;10.97;;;10.70;99.90;;;;;;5097912;28;20059;-67
2022/05/25 03:06:38;;;;;;;21.43;12.63;;;10.70;99.90;;;;;;5115686;28;20039;-67
2022/05/25 03:09:04;;;;;;;14.43;11.93;;;10.70;99.90;;;;;;5115422;28;20044;-67
2022/05/25 03:11:30;;;;;;;16.57;11.47;;;10.70;99.90;;;;;;5097767;28;20043;-67
2022/05/25 03:13:56;;;;;;;20.43;13.03;;;10.60;99.90;;;;;;5115160;28;20040;-67
2022/05/25 03:16:22;;;;;;;19.00;13.43;;;10.60;99.90;;;;;;5115334;28;20058;-67
2022/05/25 03:18:50;;;;;;;15.43;13.40;;;10.60;99.90;;;;;;5115358;28;20118;-68
2022/05/25 03:21:18;;;;;;;17.63;13.47;;;10.60;99.90;;;;;;5115414;28;20281;-67
2022/05/25 03:23:43;;;;;;;15.20;13.57;;;10.60;99.90;;;;;;5115010;28;20300;-68
2022/05/25 03:26:09;;;;;;;17.07;12.63;;;10.60;99.90;;;;;;5114248;28;20289;-67
2022/05/25 03:28:35;;;;;;;16.80;13.03;;;10.60;99.90;;;;;;5096896;28;20479;-67
2022/05/25 03:31:01;;;;;;;16.27;13.13;;;10.60;99.90;;;;;;5114741;28;20051;-67
2022/05/25 03:33:26;;;;;;;17.80;13.40;;;10.60;99.90;;;;;;5115203;28;20285;-67
2022/05/25 03:35:52;;;;;;;17.10;13.17;;;10.60;99.90;;;;;;5114903;28;20058;-67
2022/05/25 03:38:18;;;;;;;16.73;13.53;;;10.50;99.90;;;;;;5115135;28;20097;-67
2022/05/25 03:40:44;;;;;;;18.07;14.87;;;10.50;99.90;;;;;;5114825;28;20043;-67
2022/05/25 03:43:12;;;;;;;17.53;14.17;;;10.50;99.90;;;;;;5096773;28;20059;-67
2022/05/25 03:45:38;;;;;;;15.83;13.20;;;10.60;99.90;;;;;;5114707;28;20047;-67
2022/05/25 03:48:07;;;;;;;15.10;12.90;;;10.50;99.90;;;;;;5114683;28;20284;-67
2022/05/25 03:50:35;;;;;;;18.47;14.47;;;10.50;99.90;;;;;;5096704;28;20342;-67
2022/05/25 03:53:01;;;;;;;17.70;14.03;;;10.60;99.90;;;;;;5114405;28;20316;-67
2022/05/25 03:55:26;;;;;;;18.37;14.77;;;10.60;99.90;;;;;;5114590;28;20749;-67
2022/05/25 03:57:52;;;;;;;16.67;14.20;;;10.60;99.90;;;;;;5096119;28;20100;-67
2022/05/25 04:00:18;;;;;;;18.27;14.80;;;10.60;99.90;;;;;;5114501;28;20044;-67
2022/05/25 04:02:47;;;;;;;16.17;14.40;;;10.60;99.90;;;;;;5114725;28;20042;-67
2022/05/25 04:05:13;;;;;;;17.80;15.47;;;10.60;99.90;;;;;;5114570;28;20637;-67
2022/05/25 04:07:41;;;;;;;17.00;13.87;;;10.60;99.90;;;;;;5114427;28;20315;-67
2022/05/25 04:10:11;;;;;;;16.97;15.17;;;10.60;99.90;;;;;;5096157;28;20158;-67
2022/05/25 04:12:37;;;;;;;17.77;14.83;;;10.60;99.90;;;;;;5114184;28;20308;-67
2022/05/25 04:15:03;;;;;;;18.00;14.93;;;10.70;99.90;;;;;;5114108;28;20289;-67
2022/05/25 04:17:32;;;;;;;16.97;15.10;;;10.70;99.90;;;;;;5095912;28;20376;-67
2022/05/25 04:19:57;;;;;;;18.37;15.93;;;10.70;99.90;;;;;;5096218;28;20308;-67
2022/05/25 04:22:23;;;;;;;17.83;14.57;;;10.70;99.90;;;;;;5096314;28;20756;-67
2022/05/25 04:24:49;;;;;;;16.77;14.10;;;10.70;99.90;;;;;;5114119;28;20180;-70
2022/05/25 04:27:15;;;;;;;17.10;14.13;;;10.70;99.90;;;;;;5113883;28;20122;-67
2022/05/25 04:29:40;;;;;;;18.50;14.90;;;10.80;99.90;;;;;;5114091;28;20050;-67
2022/05/25 04:32:06;;;;;;;17.23;14.00;;;10.80;99.90;;;;;;5113800;28;20051;-67
2022/05/25 04:34:33;;;;;;;22.07;15.83;;;10.80;99.90;;;;;;5114039;28;20054;-67
2022/05/25 04:37:48;;;;;;;17.40;15.50;;;10.80;99.90;;;;;;5113293;28;20276;-67
2022/05/25 04:39:45;;;;;;;17.27;14.90;;;10.90;99.90;;;;;;5113514;28;20368;-67
2022/05/25 04:42:11;;;;;;;17.50;14.90;;;10.90;99.90;;;;;;5113601;28;20397;-67
2022/05/25 04:44:37;;;;;;;17.80;13.90;;;11.00;99.90;;;;;;5113804;28;20483;-67
2022/05/25 04:47:06;;;;;;;14.17;12.67;;;11.00;99.90;;;;;;5113442;28;20032;-65
2022/05/25 04:49:31;;;;;;;18.03;14.13;;;11.10;99.90;;;;;;5113783;28;20348;-65
2022/05/25 04:51:57;;;;;;;18.17;14.00;;;11.20;99.90;;;;;;5113348;28;20289;-66
2022/05/25 04:54:22;;;;;;;15.73;13.37;;;11.30;99.90;;;;;;5095403;28;20364;-66
2022/05/25 04:59:32;;;;;;;16.77;13.47;;;11.40;99.90;;;;;;5113710;28;20083;-66
2022/05/25 05:01:59;;;;;;;20.00;13.37;;;11.60;99.90;;;;;;5113158;28;20317;-66
2022/05/25 05:04:26;;;;;;;15.07;13.27;;;11.70;99.90;;;;;;5113375;28;20062;-66
2022/05/25 05:06:52;;;;;;;17.40;14.30;;;11.80;99.90;;;;;;5113091;28;20648;-66
2022/05/25 05:09:18;;;;;;;15.20;13.57;;;11.90;99.90;;;;;;5113187;28;20314;-66
2022/05/25 05:11:44;;;;;;;13.47;12.10;;;12.00;99.90;;;;;;5113469;28;20282;-66
2022/05/25 05:14:10;;;;;;;15.20;13.20;;;12.10;99.90;;;;;;5113109;28;20047;-66
2022/05/25 05:16:36;;;;;;;16.33;13.00;;;12.20;99.90;;;;;;5095220;28;20289;-66
2022/05/25 05:19:01;;;;;;;14.33;12.03;;;12.30;99.90;;;;;;5113366;28;20052;-66
2022/05/25 05:21:27;;;;;;;14.57;12.53;;;12.50;99.90;;;;;;5095199;28;20051;-66
2022/05/25 05:23:53;;;;;;;13.20;11.90;;;12.50;99.90;;;;;;5113428;28;20158;-67
2022/05/25 05:26:19;;;;;;;14.67;11.77;;;12.70;99.90;;;;;;5094808;28;20443;-66
2022/05/25 05:28:45;;;;;;;14.53;12.50;;;12.70;99.90;;;;;;5113519;28;20053;-66
2022/05/25 05:31:12;;;;;;;15.53;12.20;;;12.90;99.90;;;;;;5112904;28;20083;-66
2022/05/25 05:33:38;;;;;;;14.87;10.47;;;13.00;99.90;;;;;;5113095;28;20831;-66
2022/05/25 05:36:12;;;;;;;13.43;10.57;;;13.20;99.90;;;;;;5112682;28;20418;-67
2022/05/25 05:38:49;;;;;;;13.37;10.97;;;13.30;99.90;;;;;;5113236;28;20043;-66
2022/05/25 05:41:16;;;;;;;12.90;10.03;;;13.50;99.90;;;;;;5113006;28;20278;-67
2022/05/25 05:43:42;;;;;;;12.37;10.10;;;13.70;99.90;;;;;;5112979;28;20282;-66
2022/05/25 05:46:09;;;;;;;13.63;9.37;;;;;;;;;;5112667;28;20312;-67
2022/05/25 05:48:36;;;;;;;12.70;9.40;;;14.80;99.90;;;;;;5096495;28;20048;-67
2022/05/25 05:51:04;;;;;;;11.83;8.33;;;;;;;;;;5117012;28;20281;-68
2022/05/25 05:53:30;;;;;;;9.43;7.53;;;17.80;99.90;;;;;;5117170;28;20278;-67
2022/05/25 05:55:58;;;;;;;9.73;6.97;;;19.30;99.90;;;;;;5117103;28;20042;-67
2022/05/25 05:58:24;;;;;;;13.47;7.97;;;19.60;99.90;;;;;;5116724;28;20407;-68
2022/05/25 06:00:50;;;;;;;9.07;7.47;;;20.50;99.90;;;;;;5116889;28;20142;-68
2022/05/25 06:03:16;;;;;;;9.03;7.00;;;21.20;99.90;;;;;;5116436;28;20545;-68
2022/05/25 06:05:45;;;;;;;10.60;7.13;;;21.90;99.90;;;;;;5098782;28;20039;-67
2022/05/25 06:08:13;;;;;;;8.53;6.60;;;;;;;;;;5098775;28;20066;-68
2022/05/25 06:10:40;;;;;;;9.33;5.97;;;22.80;95.00;;;;;;5116818;28;20104;-68
2022/05/25 06:13:07;;;;;;;9.00;6.10;;;23.30;95.20;;;;;;5116429;28;20398;-68
2022/05/25 06:21:09;;;;;;;8.63;5.60;;;25.00;63.60;;;;;;5116351;28;20073;-68
2022/05/25 06:23:35;;;;;;;8.00;4.90;;;25.20;72.80;;;;;;5116482;28;20040;-68
2022/05/25 06:26:00;;;;;;;7.93;5.67;;;25.50;66.60;;;;;;5116242;28;20054;-68
2022/05/25 06:28:26;;;;;;;9.00;5.23;;;25.80;64.40;;;;;;5116348;28;20047;-68
2022/05/25 06:30:53;;;;;;;7.30;5.27;;;;;;;;;;5116459;28;20460;-68
2022/05/25 06:33:20;;;;;;;9.70;5.33;;;26.50;54.80;;;;;;5116193;28;20105;-68
2022/05/25 06:35:46;;;;;;;8.47;5.40;;;;;;;;;;5116296;28;20048;-68
2022/05/25 06:38:11;;;;;;;6.60;5.30;;;27.20;51.00;;;;;;5115983;28;20046;-68
2022/05/25 06:40:37;;;;;;;9.07;5.17;;;27.30;54.20;;;;;;5116076;28;20048;-68
2022/05/25 06:43:03;;;;;;;6.87;4.90;;;27.30;53.30;;;;;;5116097;28;20108;-68
2022/05/25 06:45:29;;;;;;;7.80;4.80;;;27.50;52.80;;;;;;5115852;28;20050;-68
2022/05/25 06:47:54;;;;;;;7.32;4.97;;;27.70;51.70;;;;;;5116083;28;20047;-68
2022/05/25 06:50:20;;;;;;;7.03;5.22;;;27.60;51.70;;;;;;5115821;28;20134;-68
2022/05/25 06:52:46;;;;;;;9.33;5.30;;;27.70;50.00;;;;;;5115889;28;20522;-68
2022/05/25 06:55:11;;;;;;;6.45;4.60;;;27.50;50.60;;;;;;5115485;28;20051;-68
2022/05/25 06:57:37;;;;;;;9.63;5.40;;;27.10;50.00;;;;;;5115980;28;20474;-68
2022/05/25 07:00:04;;;;;;;9.63;4.57;;;26.70;50.40;;;;;;5115858;28;20044;-68
2022/05/25 07:02:29;;;;;;;6.73;4.50;;;26.50;51.20;;;;;;5115674;28;20054;-68
2022/05/25 07:04:55;;;;;;;7.80;4.15;;;27.00;51.70;;;;;;5115848;28;20396;-68
2022/05/25 07:07:21;;;;;;;7.05;4.55;;;27.50;50.60;;;;;;5115345;28;20493;-69
2022/05/25 07:09:47;;;;;;;9.70;5.20;;;28.10;50.10;;;;;;5097394;28;20054;-69
2022/05/25 07:12:13;;;;;;;7.80;5.03;;;28.10;48.70;;;;;;5115571;28;20051;-69
2022/05/25 07:14:39;;;;;;;7.97;4.20;;;28.20;48.40;;;;;;5115620;28;20483;-69
2022/05/25 07:17:06;;;;;;;8.60;5.22;;;27.90;48.10;;;;;;5115542;28;20039;-69
2022/05/25 07:19:32;;;;;;;10.00;5.30;;;26.80;48.30;;;;;;5094791;28;20048;-69
2022/05/25 07:21:58;;;;;;;7.97;4.47;;;26.70;50.80;;;;;;5095009;28;20048;-69
2022/05/25 07:24:24;;;;;;;9.23;5.63;;;27.40;50.00;;;;;;5094717;28;20044;-69
2022/05/25 07:26:50;;;;;;;6.95;4.88;;;27.10;48.40;;;;;;5095005;28;20380;-69
2022/05/25 07:29:16;;;;;;;8.32;5.13;;;;;;;;;;5076838;28;20048;-69
2022/05/25 07:31:51;;;;;;;8.00;5.03;;;25.30;50.20;;;;;;5095040;28;20054;-68
2022/05/25 07:34:19;;;;;;;6.73;4.67;;;24.30;52.10;;;;;;5094606;28;20090;-69
2022/05/25 07:36:52;;;;;;;9.33;4.90;;;23.30;54.80;;;;;;5094792;28;20454;-68
2022/05/25 07:39:21;;;;;;;9.33;4.50;;;23.20;57.50;;;;;;5094547;28;20048;-68
2022/05/25 07:41:50;;;;;;;7.43;4.37;;;23.80;58.20;;;;;;5094978;28;20044;-68
2022/05/25 07:44:22;;;;;;;8.37;4.77;;;24.30;57.00;;;;;;5094502;28;20044;-69
2022/05/25 07:46:49;;;;;;;7.93;4.13;;;24.70;54.90;;;;;;5094567;28;20048;-68
2022/05/25 07:49:16;;;;;;;6.57;3.87;;;24.50;54.20;;;;;;5076212;28;20044;-69
2022/05/25 07:51:41;;;;;;;8.03;4.20;;;24.70;54.60;;;;;;5094294;28;20135;-68
2022/05/25 07:54:09;;;;;;;6.87;3.97;;;;;;;;;;5094441;28;20158;-69
2022/05/25 07:56:37;;;;;;;8.40;4.27;;;26.50;51.40;;;;;;5094137;28;20055;-69
2022/05/25 07:59:12;;;;;;;9.23;3.93;;;26.50;50.80;;;;;;5094395;28;20052;-69
2022/05/25 08:07:14;;;;;;;5.68;2.78;;;26.30;50.00;;;;;;5094063;28;20052;-70
2022/05/25 08:09:40;;;;;;;5.07;2.20;;;26.50;50.40;;;;;;5094076;28;20044;-68
2022/05/25 08:12:07;;;;;;;6.63;2.60;;;26.30;48.60;;;;;;5093353;28;20382;-69
2022/05/25 08:14:33;;;;;;;6.10;2.75;;;26.10;48.70;;;;;;5093444;28;20044;-71
2022/05/25 08:16:59;;;;;;;6.85;2.65;;;25.80;48.50;;;;;;5093539;28;20063;-68
2022/05/25 08:19:25;;;;;;;5.82;2.28;;;25.80;49.00;;;;;;5112470;28;20412;-68
2022/05/25 08:21:54;;;;;;;5.72;2.78;;;25.60;49.30;;;;;;5096108;28;20068;-66
2022/05/25 08:24:20;;;;;;;6.25;2.50;;;25.00;50.00;;;;;;5114136;28;20156;-67
2022/05/25 08:26:46;;;;;;;11.27;2.80;;;24.30;50.90;;;;;;5114085;28;20069;-67
2022/05/25 08:29:12;;;;;;;5.80;2.83;;;23.70;51.40;;;;;;5113983;28;20048;-67
2022/05/25 08:31:40;;;;;;;5.40;2.60;;;23.10;53.30;;;;;;5095518;28;20043;-67
2022/05/25 08:34:07;;;;;;;5.43;2.03;;;;;;;;;;5113990;28;20048;-66
2022/05/25 08:36:33;;;;;;;6.90;2.10;;;22.60;69.70;;;;;;5113576;28;20047;-69
2022/05/25 08:38:59;;;;;;;5.70;2.10;;;;;;;;;;5113945;28;20105;-68
2022/05/25 08:41:37;;;;;;;7.87;2.23;;;;;;;;;;5113467;28;20130;-68
2022/05/25 08:44:05;;;;;;;5.50;2.43;;;22.00;85.20;;;;;;5113295;28;20047;-68
2022/05/25 08:46:32;;;;;;;4.00;2.20;;;22.10;58.30;;;;;;5110335;28;20495;-67
2022/05/25 08:49:06;;;;;;;6.17;2.77;;;21.90;57.10;;;;;;5113183;28;20039;-67
2022/05/25 08:51:50;;;;;;;5.47;2.20;;;21.50;58.50;;;;;;5110315;28;20052;-68
2022/05/25 08:54:19;;;;;;;4.57;1.90;;;21.30;60.20;;;;;;5111174;28;20511;-66
2022/05/25 08:56:53;;;;;;;6.47;2.50;;;21.20;61.10;;;;;;5112994;28;20047;-67
2022/05/25 08:59:18;;;;;;;7.10;2.80;;;21.30;64.30;;;;;;5113264;28;20070;-66
2022/05/25 09:01:48;;;;;;;7.27;2.80;;;21.50;66.00;;;;;;5112670;28;20085;-66
2022/05/25 09:04:44;;;;;;;7.93;4.03;;;21.70;64.10;;;;;;5111087;28;20050;-66
2022/05/25 09:07:35;;;;;;;6.77;3.00;;;21.70;64.80;;;;;;5113521;28;20035;-66
2022/05/25 09:10:01;;;;;;;8.67;3.93;;;21.80;63.80;;;;;;5113582;28;20445;-68
2022/05/25 09:12:38;;;;;;;8.40;4.10;;;21.60;63.00;;;;;;5113030;28;20064;-68
2022/05/25 09:15:17;;;;;;;7.57;4.73;;;21.40;63.10;;;;;;5113134;28;20047;-67
2022/05/25 09:18:06;;;;;;;6.40;4.30;;;21.10;63.60;;;;;;5112641;28;20673;-67
2022/05/25 09:20:34;;;;;;;7.20;4.57;;;;;;;;;;5112935;28;20082;-67
2022/05/25 09:23:01;;;;;;;9.27;4.97;;;;;;;;;;5112138;28;20411;-68
2022/05/25 09:25:27;;;;;;;10.97;5.63;;;;;;;;;;5112687;28;20483;-69
2022/05/25 09:27:57;;;;;;;9.97;5.37;;;;;;;;;;5113250;28;20055;-68
2022/05/25 09:30:24;;;;;;;9.27;5.53;;;21.10;93.30;;;;;;5113416;28;20044;-68
2022/05/25 09:32:51;;;;;;;10.03;5.73;;;;;;;;;;5113286;28;20043;-69
2022/05/25 09:35:26;;;;;;;10.13;5.93;;;;;;;;;;5113086;28;20487;-70
2022/05/25 09:37:54;;;;;;;7.03;5.47;;;;;;;;;;5112931;28;20086;-69
2022/05/25 09:40:25;;;;;;;8.77;5.27;;;;;;;;;;5113213;28;20085;-69
2022/05/25 09:42:56;;;;;;;6.23;4.10;;;21.40;96.60;;;;;;5113128;28;20119;-69
2022/05/25 09:45:22;;;;;;;8.33;4.50;;;21.30;94.30;;;;;;5113093;28;20040;-69
2022/05/25 09:47:50;;;;;;;7.93;4.70;;;21.20;94.50;;;;;;5112643;28;20174;-69
2022/05/25 09:50:35;;;;;;;8.30;4.87;;;21.00;95.50;;;;;;5112860;28;20043;-69
2022/05/25 09:53:09;;;;;;;10.50;5.22;;;20.70;67.00;;;;;;5113392;28;20514;-68
2022/05/25 09:55:45;;;;;;;8.68;5.20;;;20.50;68.40;;;;;;5112696;28;20048;-68
2022/05/25 09:58:43;;;;;;;9.07;5.47;;;20.40;69.70;;;;;;5112911;28;20055;-67
2022/05/25 10:01:45;;;;;;;9.20;6.00;;;20.20;74.40;;;;;;5113211;28;20137;-68
2022/05/25 10:04:16;;;;;;;6.93;4.43;;;20.10;78.10;;;;;;5094846;28;20051;-68
2022/05/25 10:06:48;;;;;;;8.80;3.67;;;19.90;71.90;;;;;;5112583;28;20070;-68
2022/05/25 10:09:26;;;;;;;6.23;3.10;;;19.80;71.60;;;;;;5112576;28;20060;-68
2022/05/25 10:12:00;;;;;;;6.43;3.57;;;19.70;68.70;;;;;;5112500;28;20088;-69
2022/05/25 10:14:33;;;;;;;6.78;4.75;;;19.60;70.40;;;;;;5112840;28;20055;-68
2022/05/25 10:17:11;;;;;;;9.93;5.80;;;19.60;72.20;;;;;;5112770;28;20068;-67
2022/05/25 10:19:49;;;;;;;10.60;5.67;;;19.60;73.80;;;;;;5112053;28;20052;-68
2022/05/25 10:22:36;;;;;;;9.67;6.70;;;19.50;78.30;;;;;;5112771;28;20487;-68
2022/05/25 10:25:12;;;;;;;20.43;10.00;;;19.50;82.60;;;;;;5112698;28;20044;-68
2022/05/25 10:27:44;;;;;;;12.53;8.90;;;19.30;99.90;;;;;;5112483;28;20081;-69
2022/05/25 10:38:45;;;;;;;5.87;2.50;;;18.20;99.90;;;;;;5116038;28;20048;-69
2022/05/25 10:44:09;;;;;;;6.78;2.85;;;17.70;99.90;;;;;;5097859;28;20052;-69
2022/05/25 10:46:37;;;;;;;4.90;3.27;;;17.80;99.90;;;;;;5097485;28;20047;-69
2022/05/25 10:49:17;;;;;;;7.30;3.07;;;17.90;99.90;;;;;;5098052;28;20056;-68
2022/05/25 10:51:50;;;;;;;7.60;4.40;;;17.90;99.90;;;;;;5115797;28;20044;-68
2022/05/25 10:54:45;;;;;;;8.17;5.20;;;17.80;99.90;;;;;;5116225;28;20123;-68
2022/05/25 10:57:29;;;;;;;9.50;6.60;;;17.90;99.90;;;;;;5115095;28;20056;-68
2022/05/25 11:00:24;;;;;;;12.43;8.30;;;18.00;99.90;;;;;;5115698;28;20043;-69
2022/05/25 11:03:08;;;;;;;13.93;9.23;;;18.10;99.90;;;;;;5115562;28;20762;-67
2022/05/25 11:05:47;;;;;;;12.90;8.70;;;18.10;99.90;;;;;;5115618;28;20126;-66
2022/05/25 11:08:31;;;;;;;9.50;7.43;;;18.10;99.90;;;;;;5115735;28;20286;-68
2022/05/25 11:11:03;;;;;;;10.43;8.73;;;18.20;99.90;;;;;;5115300;28;20101;-68
2022/05/25 11:13:36;;;;;;;10.47;7.57;;;18.20;99.90;;;;;;5115685;28;20087;-68
2022/05/25 11:16:23;;;;;;;13.67;7.73;;;18.30;99.90;;;;;;5115660;28;20122;-68
2022/05/25 11:19:20;;;;;;;9.93;6.20;;;18.50;99.90;;;;;;5115228;28;20067;-69
2022/05/25 11:21:48;;;;;;;9.53;5.90;;;18.70;99.90;;;;;;5115082;28;20131;-68
2022/05/25 11:24:20;;;;;;;8.07;3.80;;;18.90;99.90;;;;;;5115249;28;20459;-75
2022/05/25 11:26:55;;;;;;;17.63;3.17;;;19.00;99.90;;;;;;5096995;28;20134;-66
2022/05/25 11:29:42;;;;;;;9.73;2.40;;;19.00;98.30;;;;;;5115601;28;20052;-67
2022/05/25 11:32:40;;;;;;;6.40;1.80;;;19.00;96.80;;;;;;5115223;28;20061;-69
2022/05/25 11:35:12;;;;;;;6.13;1.50;;;19.10;91.80;;;;;;5114832;28;20050;-69
2022/05/25 11:38:00;;;;;;;6.40;1.63;;;19.10;87.60;;;;;;5114448;28;20499;-70
2022/05/25 11:40:38;;;;;;;3.33;1.27;;;19.10;89.30;;;;;;5096749;28;20120;-70
2022/05/25 11:43:23;;;;;;;5.33;1.50;;;19.20;86.40;;;;;;5111383;28;20073;-70
2022/05/25 11:46:02;;;;;;;3.80;1.20;;;19.40;83.60;;;;;;5113206;28;20043;-69
2022/05/25 11:48:43;;;;;;;7.97;1.70;;;19.40;72.90;;;;;;5114653;28;20052;-68
2022/05/25 11:51:47;;;;;;;4.70;1.13;;;19.50;71.70;;;;;;5114782;28;20051;-70
2022/05/25 11:54:27;;;;;;;6.17;1.60;;;19.60;68.20;;;;;;5114850;28;20094;-67
2022/05/25 11:57:04;;;;;;;2.83;1.00;;;19.70;69.30;;;;;;5114538;28;20175;-69
2022/05/25 11:59:50;;;;;;;4.47;1.20;;;19.90;67.60;;;;;;5114598;28;20043;-68
2022/05/25 12:02:37;;;;;;;7.27;1.23;;;19.90;66.20;;;;;;5114811;28;20060;-71
2022/05/25 12:05:16;;;;;;;5.37;1.47;;;19.90;62.20;;;;;;5114320;28;20043;-68
2022/05/25 12:07:55;;;;;;;5.93;1.20;;;20.00;61.00;;;;;;5114291;28;20069;-70
2022/05/25 12:10:30;;;;;;;5.60;1.30;;;19.90;61.00;;;;;;5114794;28;20051;-68
2022/05/25 12:13:14;;;;;;;4.73;1.20;;;20.00;59.80;;;;;;5114225;28;20100;-68
2022/05/25 12:16:16;;;;;;;5.97;1.23;;;20.10;58.60;;;;;;5114594;28;20050;-69
2022/05/25 12:19:16;;;;;;;7.03;1.40;;;20.10;58.70;;;;;;5114349;28;20090;-68
2022/05/25 12:21:43;;;;;;;7.07;1.20;;;20.00;54.20;;;;;;5113908;28;20107;-68
2022/05/25 12:24:19;;;;;;;4.97;1.60;;;19.90;56.20;;;;;;5114138;28;20376;-70
2022/05/25 12:26:46;;;;;;;5.13;1.03;;;19.80;56.30;;;;;;5113677;28;20090;-67
2022/05/25 12:29:34;;;;;;;5.13;1.20;;;19.80;56.60;;;;;;5114229;28;20047;-67
2022/05/25 12:32:00;;;;;;;4.17;1.30;;;19.80;56.80;;;;;;5114035;28;20047;-67
2022/05/25 12:34:37;;;;;;;4.90;1.40;;;19.70;56.50;;;;;;5079371;28;20047;-67
2022/05/25 12:37:04;;;;;;;11.23;1.50;;;19.80;57.90;;;;;;5113078;28;20051;-67
2022/05/25 12:39:42;;;;;;;7.30;1.40;;;19.70;57.40;;;;;;5093259;28;20476;-73
2022/05/25 12:42:23;;;;;;;6.33;1.40;;;19.80;56.90;;;;;;5075318;28;20048;-69
2022/05/25 12:50:52;;;;;;;9.85;1.52;;;19.60;55.90;;;;;;5093217;28;20135;-69
2022/05/25 12:53:32;;;;;;;5.77;1.70;;;19.60;56.90;;;;;;5093453;28;20400;-68
2022/05/25 12:56:19;;;;;;;5.93;1.90;;;19.50;56.30;;;;;;5092879;28;20044;-68
2022/05/25 12:58:47;;;;;;;5.30;1.63;;;19.50;57.30;;;;;;5093219;28;20052;-68
2022/05/25 13:01:22;;;;;;;4.63;1.43;;;19.40;56.60;;;;;;5093238;28;20564;-68
2022/05/25 13:03:48;;;;;;;4.75;1.50;;;19.40;57.50;;;;;;5092846;28;20047;-68
2022/05/25 13:06:22;;;;;;;6.17;1.50;;;19.40;57.50;;;;;;5092972;28;20040;-68
2022/05/25 13:08:51;;;;;;;6.55;1.30;;;19.40;58.10;;;;;;5075326;28;20488;-68
2022/05/25 13:11:36;;;;;;;7.63;1.90;;;19.40;57.80;;;;;;5092905;28;20396;-71
2022/05/25 13:14:16;;;;;;;5.70;1.50;;;19.40;58.50;;;;;;5092789;28;20044;-69
2022/05/25 13:16:41;;;;;;;5.10;1.50;;;19.40;58.70;;;;;;5092890;28;20520;-70
2022/05/25 13:19:35;;;;;;;6.80;1.47;;;19.40;58.60;;;;;;5099776;28;20047;-71
2022/05/25 13:22:06;;;;;;;5.53;1.67;;;19.30;58.10;;;;;;5110049;28;20047;-67
2022/05/25 13:24:35;;;;;;;6.67;1.30;;;19.30;58.10;;;;;;5113537;28;20441;-67
2022/05/25 13:27:20;;;;;;;6.93;1.80;;;19.30;58.30;;;;;;5112979;28;20047;-69
2022/05/25 13:29:53;;;;;;;4.00;1.50;;;19.30;59.00;;;;;;5113267;28;20044;-68
2022/05/25 13:32:49;;;;;;;4.80;1.50;;;19.30;59.00;;;;;;5095471;28;20047;-68
2022/05/25 13:35:35;;;;;;;6.57;1.40;;;19.40;58.90;;;;;;5112862;28;20384;-68
2022/05/25 13:38:03;;;;;;;5.90;1.50;;;19.40;60.50;;;;;;5112787;28;20044;-68
2022/05/25 13:40:38;;;;;;;6.83;1.67;;;19.50;60.60;;;;;;5113161;28;20052;-68
2022/05/25 13:43:07;;;;;;;3.53;1.10;;;19.50;60.50;;;;;;5112901;28;20052;-69